createdAt,value
2019-04-10T00:00:47.808Z,10.27
2019-04-10T00:03:25.568Z,10.40
2019-04-10T00:05:44.495Z,10.07
2019-04-10T00:08:12.300Z,10.07
2019-04-10T00:10:40.232Z,10.50
2019-04-10T00:13:08.367Z,9.40
2019-04-10T00:15:35.263Z,10.27
2019-04-10T00:18:02.260Z,10.17
2019-04-10T00:20:29.461Z,9.27
2019-04-10T00:22:56.470Z,10.00
2019-04-10T00:25:24.436Z,9.37
2019-04-10T00:27:52.650Z,9.67
2019-04-10T00:30:20.740Z,10.20
2019-04-10T00:32:48.108Z,10.27
2019-04-10T00:35:15.334Z,10.60
2019-04-10T00:37:42.872Z,9.37
2019-04-10T00:40:10.955Z,10.20
2019-04-10T00:42:38.042Z,10.23
2019-04-10T00:45:05.095Z,9.23
2019-04-10T00:47:32.051Z,10.00
2019-04-10T00:49:59.017Z,10.10
2019-04-10T00:52:26.194Z,10.33
2019-04-10T00:54:53.246Z,10.67
2019-04-10T00:57:21.238Z,10.17
2019-04-10T00:59:48.429Z,9.27
2019-04-10T01:02:16.460Z,9.20
2019-04-10T01:04:44.458Z,9.33
2019-04-10T01:07:12.665Z,9.07
2019-04-10T01:09:39.789Z,8.67
2019-04-10T01:12:07.712Z,9.33
2019-04-10T01:14:35.881Z,9.20
2019-04-10T01:17:04.020Z,9.47
2019-04-10T01:19:32.190Z,8.57
2019-04-10T01:21:59.449Z,9.27
2019-04-10T01:24:26.419Z,8.87
2019-04-10T01:26:53.802Z,7.93
2019-04-10T01:29:21.715Z,9.17
2019-04-10T01:31:48.638Z,8.47
2019-04-10T01:34:15.556Z,8.37
2019-04-10T01:36:42.553Z,9.30
2019-04-10T01:39:15.890Z,8.33
2019-04-10T01:41:43.880Z,8.47
2019-04-10T01:44:11.108Z,8.47
2019-04-10T01:46:38.183Z,7.60
2019-04-10T01:49:05.331Z,8.13
2019-04-10T01:51:33.466Z,8.63
2019-04-10T01:54:00.623Z,8.60
2019-04-10T01:56:31.834Z,7.90
2019-04-10T01:58:57.293Z,8.50
2019-04-10T02:01:29.971Z,8.30
2019-04-10T02:03:58.381Z,8.30
2019-04-10T02:06:25.741Z,8.47
2019-04-10T02:08:52.649Z,8.13
2019-04-10T02:11:19.682Z,7.70
2019-04-10T02:13:47.596Z,8.43
2019-04-10T02:16:15.092Z,7.50
2019-04-10T02:18:42.027Z,8.40
2019-04-10T02:21:09.588Z,8.10
2019-04-10T02:23:36.594Z,7.80
2019-04-10T02:26:05.391Z,8.30
2019-04-10T02:28:33.281Z,7.93
2019-04-10T02:31:00.677Z,8.80
2019-04-10T02:33:29.262Z,7.53
2019-04-10T02:35:57.131Z,7.40
2019-04-10T02:38:38.993Z,7.43
2019-04-10T02:40:53.228Z,8.37
2019-04-10T02:43:21.127Z,8.33
2019-04-10T02:45:49.404Z,7.77
2019-04-10T02:48:17.119Z,8.13
2019-04-10T02:50:44.957Z,7.93
2019-04-10T02:53:13.092Z,8.43
2019-04-10T02:55:40.916Z,8.20
2019-04-10T02:58:09.647Z,8.20
2019-04-10T03:00:37.882Z,8.00
2019-04-10T03:03:05.536Z,7.90
2019-04-10T03:05:34.420Z,7.83
2019-04-10T03:08:01.980Z,7.60
2019-04-10T03:10:38.231Z,8.20
2019-04-10T03:12:59.304Z,7.63
2019-04-10T03:15:29.501Z,8.13
2019-04-10T03:17:56.654Z,7.60
2019-04-10T03:20:24.622Z,7.80
2019-04-10T03:22:51.978Z,8.20
2019-04-10T03:25:19.461Z,8.07
2019-04-10T03:27:46.901Z,8.03
2019-04-10T03:30:18.096Z,8.37
2019-04-10T03:33:07.434Z,8.27
2019-04-10T03:35:37.382Z,7.63
2019-04-10T03:38:04.402Z,8.07
2019-04-10T03:40:31.441Z,8.30
2019-04-10T03:42:58.389Z,8.60
2019-04-10T03:45:25.375Z,8.63
2019-04-10T03:47:52.362Z,8.77
2019-04-10T03:50:19.534Z,8.77
2019-04-10T03:52:46.547Z,8.63
2019-04-10T03:55:13.606Z,8.60
2019-04-10T03:57:40.780Z,8.50
2019-04-10T04:00:08.194Z,8.87
2019-04-10T04:02:35.959Z,8.60
2019-04-10T04:05:04.334Z,8.07
2019-04-10T04:07:32.549Z,8.70
2019-04-10T04:10:00.187Z,9.20
2019-04-10T04:12:27.229Z,9.07
2019-04-10T04:14:54.936Z,9.10
2019-04-10T04:17:22.326Z,9.30
2019-04-10T04:19:49.255Z,7.83
2019-04-10T04:22:16.706Z,7.90
2019-04-10T04:24:44.053Z,8.67
2019-04-10T04:27:11.203Z,9.93
2019-04-10T04:29:39.118Z,9.57
2019-04-10T04:32:06.966Z,9.90
2019-04-10T04:34:34.676Z,9.30
2019-04-10T04:37:02.467Z,8.60
2019-04-10T04:39:30.483Z,8.27
2019-04-10T04:41:58.805Z,8.30
2019-04-10T04:44:26.968Z,8.63
2019-04-10T04:46:54.197Z,8.57
2019-04-10T04:49:21.186Z,9.03
2019-04-10T04:51:48.366Z,8.57
2019-04-10T04:54:15.255Z,8.27
2019-04-10T04:56:42.301Z,8.40
2019-04-10T04:59:10.177Z,7.40
2019-04-10T05:01:38.305Z,8.30
2019-04-10T05:04:05.480Z,7.33
2019-04-10T05:06:32.977Z,7.90
2019-04-10T05:09:00.477Z,7.87
2019-04-10T05:11:27.347Z,7.60
2019-04-10T05:13:55.828Z,7.80
2019-04-10T05:16:22.900Z,7.67
2019-04-10T05:18:50.112Z,7.37
2019-04-10T05:21:17.441Z,7.50
2019-04-10T05:23:44.323Z,7.73
2019-04-10T05:26:11.359Z,6.93
2019-04-10T05:28:38.778Z,7.87
2019-04-10T05:31:06.794Z,7.43
2019-04-10T05:33:33.813Z,8.07
2019-04-10T05:36:01.342Z,7.27
2019-04-10T05:38:29.163Z,8.07
2019-04-10T05:40:57.081Z,7.40
2019-04-10T05:43:24.158Z,7.43
2019-04-10T05:45:51.201Z,7.00
2019-04-10T05:48:21.765Z,6.77
2019-04-10T05:50:53.978Z,7.30
2019-04-10T05:53:16.260Z,7.40
2019-04-10T05:55:43.426Z,6.70
2019-04-10T05:58:10.470Z,7.23
2019-04-10T06:00:38.146Z,7.10
2019-04-10T06:03:06.185Z,7.00
2019-04-10T06:05:34.170Z,7.33
2019-04-10T06:08:01.384Z,7.40
2019-04-10T06:10:28.604Z,7.07
2019-04-10T06:12:55.941Z,6.90
2019-04-10T06:15:23.238Z,6.10
2019-04-10T06:17:51.000Z,6.63
2019-04-10T06:20:18.136Z,6.40
2019-04-10T06:22:47.222Z,6.77
2019-04-10T06:25:16.074Z,7.10
2019-04-10T06:27:43.125Z,6.70
2019-04-10T06:30:10.104Z,6.60
2019-04-10T06:32:37.715Z,6.90
2019-04-10T06:35:05.777Z,6.07
2019-04-10T06:37:33.086Z,6.47
2019-04-10T06:40:10.789Z,7.00
2019-04-10T06:42:29.610Z,6.37
2019-04-10T06:44:56.562Z,6.27
2019-04-10T06:47:24.361Z,6.90
2019-04-10T06:49:51.315Z,7.07
2019-04-10T06:52:18.630Z,6.90
2019-04-10T06:54:45.637Z,6.90
2019-04-10T06:57:12.523Z,6.80
2019-04-10T06:59:39.869Z,7.47
2019-04-10T07:02:18.521Z,7.03
2019-04-10T07:04:44.991Z,7.07
2019-04-10T07:07:09.403Z,7.30
2019-04-10T07:09:33.860Z,7.20
2019-04-10T07:12:03.015Z,6.87
2019-04-10T07:14:30.203Z,6.70
2019-04-10T07:17:00.693Z,6.50
2019-04-10T07:19:26.188Z,6.90
2019-04-10T07:21:53.350Z,6.37
2019-04-10T07:24:20.858Z,6.90
2019-04-10T07:26:50.524Z,7.43
2019-04-10T07:29:21.057Z,6.90
2019-04-10T07:31:46.634Z,6.67
2019-04-10T07:34:13.848Z,6.47
2019-04-10T07:36:42.485Z,6.27
2019-04-10T07:39:09.714Z,6.97
2019-04-10T07:41:37.773Z,6.27
2019-04-10T07:44:05.793Z,7.20
2019-04-10T07:46:34.596Z,7.13
2019-04-10T07:49:02.855Z,6.63
2019-04-10T07:51:29.928Z,7.07
2019-04-10T07:53:57.716Z,6.93
2019-04-10T07:56:24.890Z,6.63
2019-04-10T07:58:51.958Z,6.97
2019-04-10T08:01:19.130Z,7.63
2019-04-10T08:03:46.534Z,6.90
2019-04-10T08:06:13.609Z,6.87
2019-04-10T08:08:40.821Z,7.20
2019-04-10T08:11:07.660Z,7.00
2019-04-10T08:13:34.514Z,6.90
2019-04-10T08:16:01.476Z,6.63
2019-04-10T08:18:29.539Z,7.23
2019-04-10T08:20:57.292Z,7.43
2019-04-10T08:23:24.599Z,7.50
2019-04-10T08:25:51.688Z,7.70
2019-04-10T08:28:19.756Z,8.13
2019-04-10T08:30:46.798Z,8.00
2019-04-10T08:33:14.041Z,7.77
2019-04-10T08:35:41.932Z,7.90
2019-04-10T08:38:09.766Z,7.70
2019-04-10T08:40:36.855Z,8.90
2019-04-10T08:43:04.224Z,8.77
2019-04-10T08:45:40.141Z,8.43
2019-04-10T08:48:01.353Z,8.60
2019-04-10T08:50:28.385Z,8.57
2019-04-10T08:52:55.768Z,9.03
2019-04-10T08:55:23.950Z,8.07
2019-04-10T08:57:52.326Z,7.90
2019-04-10T09:00:20.573Z,8.93
2019-04-10T09:02:48.630Z,8.87
2019-04-10T09:05:15.702Z,8.13
2019-04-10T09:07:42.561Z,8.67
2019-04-10T09:10:10.261Z,8.20
2019-04-10T09:12:37.271Z,8.13
2019-04-10T09:15:05.593Z,9.87
2019-04-10T09:17:33.417Z,8.20
2019-04-10T09:20:00.704Z,9.07
2019-04-10T09:22:28.857Z,9.17
2019-04-10T09:24:56.456Z,8.90
2019-04-10T09:27:23.337Z,9.27
2019-04-10T09:29:50.253Z,9.80
2019-04-10T09:32:18.062Z,8.60
2019-04-10T09:34:46.835Z,9.60
2019-04-10T09:37:15.647Z,9.43
2019-04-10T09:39:43.422Z,9.63
2019-04-10T09:42:10.717Z,9.60
2019-04-10T09:44:40.018Z,10.03
2019-04-10T09:47:07.757Z,9.67
2019-04-10T09:49:40.440Z,8.67
2019-04-10T09:52:04.738Z,10.67
2019-04-10T09:54:32.879Z,10.27
2019-04-10T09:57:01.203Z,9.83
2019-04-10T09:59:35.861Z,10.37
2019-04-10T10:01:56.936Z,10.00
2019-04-10T10:04:23.856Z,10.13
2019-04-10T10:06:51.489Z,9.77
2019-04-10T10:09:19.477Z,10.27
2019-04-10T10:11:47.014Z,9.90
2019-04-10T10:14:14.535Z,10.33
2019-04-10T10:16:42.191Z,10.20
2019-04-10T10:19:10.003Z,9.23
2019-04-10T10:21:36.983Z,10.80
2019-04-10T10:24:04.540Z,10.13
2019-04-10T10:26:32.854Z,10.47
2019-04-10T10:29:00.702Z,10.50
2019-04-10T10:31:28.482Z,10.07
2019-04-10T10:33:56.460Z,10.73
2019-04-10T10:36:35.501Z,10.77
2019-04-10T10:39:03.576Z,10.60
2019-04-10T10:41:22.553Z,11.63
2019-04-10T10:43:49.467Z,9.87
2019-04-10T10:46:17.522Z,9.73
2019-04-10T10:48:44.631Z,10.67
2019-04-10T10:51:11.485Z,11.03
2019-04-10T10:53:38.605Z,10.23
2019-04-10T10:56:06.352Z,9.70
2019-04-10T10:58:33.397Z,10.40
2019-04-10T11:01:00.245Z,9.90
2019-04-10T11:03:27.413Z,10.53
2019-04-10T11:05:54.919Z,9.73
2019-04-10T11:08:22.060Z,11.50
2019-04-10T11:10:54.041Z,9.77
2019-04-10T11:13:19.141Z,10.80
2019-04-10T11:15:46.312Z,10.43
2019-04-10T11:18:13.896Z,10.43
2019-04-10T11:20:41.785Z,9.80
2019-04-10T11:23:09.530Z,10.70
2019-04-10T11:25:37.733Z,10.37
2019-04-10T11:28:05.944Z,10.77
2019-04-10T11:30:34.454Z,11.97
2019-04-10T11:33:02.582Z,11.73
2019-04-10T11:35:31.568Z,10.77
2019-04-10T11:38:00.846Z,10.00
2019-04-10T11:40:28.371Z,10.73
2019-04-10T11:42:57.592Z,9.90
2019-04-10T11:45:28.755Z,11.03
2019-04-10T11:47:54.477Z,10.63
2019-04-10T11:50:21.849Z,9.63
2019-04-10T11:52:53.448Z,10.17
2019-04-10T11:55:21.344Z,9.27
2019-04-10T11:57:49.729Z,9.63
2019-04-10T12:00:23.839Z,9.77
2019-04-10T12:02:52.873Z,10.23
2019-04-10T12:05:21.923Z,10.40
2019-04-10T12:08:10.933Z,9.70
2019-04-10T12:12:48.045Z,9.77
2019-04-10T12:15:17.101Z,10.00
2019-04-10T12:17:44.448Z,10.67
2019-04-10T12:20:11.756Z,10.17
2019-04-10T12:22:38.817Z,10.57
2019-04-10T12:25:06.960Z,10.43
2019-04-10T12:27:33.961Z,10.60
2019-04-10T12:30:00.814Z,10.63
2019-04-10T12:32:28.556Z,10.20
2019-04-10T12:34:56.309Z,9.90
2019-04-10T12:37:23.617Z,9.33
2019-04-10T12:39:50.597Z,10.20
2019-04-10T12:42:17.475Z,11.03
2019-04-10T12:44:44.319Z,10.40
2019-04-10T12:47:11.761Z,10.63
2019-04-10T12:49:39.377Z,9.90
2019-04-10T12:52:06.349Z,11.10
2019-04-10T12:54:33.513Z,10.60
2019-04-10T12:57:00.485Z,10.57
2019-04-10T12:59:27.782Z,10.37
2019-04-10T13:01:55.465Z,9.50
2019-04-10T13:04:24.687Z,8.57
2019-04-10T13:06:52.748Z,9.50
2019-04-10T13:09:20.122Z,9.10
2019-04-10T13:11:46.995Z,9.63
2019-04-10T13:14:14.770Z,8.90
2019-04-10T13:16:42.739Z,9.03
2019-04-10T13:19:09.832Z,9.07
2019-04-10T13:21:39.097Z,8.60
2019-04-10T13:24:05.965Z,8.90
2019-04-10T13:26:32.826Z,9.43
2019-04-10T13:29:00.146Z,8.93
2019-04-10T13:31:27.704Z,9.37
2019-04-10T13:33:55.346Z,9.00
2019-04-10T13:36:22.288Z,8.70
2019-04-10T13:38:50.531Z,8.20
2019-04-10T13:41:18.540Z,8.83
2019-04-10T13:43:46.381Z,8.60
2019-04-10T13:46:13.795Z,8.67
2019-04-10T13:48:41.693Z,8.30
2019-04-10T13:51:08.676Z,8.60
2019-04-10T13:53:35.521Z,8.80
2019-04-10T13:56:04.470Z,9.00
2019-04-10T13:58:31.521Z,9.07
2019-04-10T14:00:58.885Z,7.90
2019-04-10T14:03:26.081Z,7.90
2019-04-10T14:05:53.424Z,7.67
2019-04-10T14:08:27.609Z,8.07
2019-04-10T14:10:50.789Z,7.93
2019-04-10T14:13:17.937Z,8.03
2019-04-10T14:15:44.893Z,8.13
2019-04-10T14:18:12.412Z,7.90
2019-04-10T14:20:39.516Z,8.43
2019-04-10T14:23:14.549Z,8.67
2019-04-10T14:25:52.826Z,8.67
2019-04-10T14:28:21.954Z,7.33
2019-04-10T14:30:49.493Z,8.10
2019-04-10T14:33:16.453Z,7.57
2019-04-10T14:35:43.568Z,7.83
2019-04-10T14:38:10.953Z,8.13
2019-04-10T14:40:38.405Z,8.50
2019-04-10T14:43:05.813Z,8.57
2019-04-10T14:45:33.255Z,7.80
2019-04-10T14:48:00.642Z,8.17
2019-04-10T14:50:28.205Z,8.57
2019-04-10T14:52:55.520Z,7.80
2019-04-10T14:55:22.738Z,8.43
2019-04-10T14:57:50.906Z,8.17
2019-04-10T15:00:39.064Z,7.67
2019-04-10T15:03:06.962Z,7.80
2019-04-10T15:05:44.867Z,7.77
2019-04-10T15:08:03.708Z,7.30
2019-04-10T15:10:31.086Z,7.17
2019-04-10T15:13:07.515Z,7.23
2019-04-10T15:15:28.119Z,6.87
2019-04-10T15:17:58.139Z,7.30
2019-04-10T15:20:25.589Z,7.33
2019-04-10T15:22:52.720Z,6.70
2019-04-10T15:25:19.888Z,6.87
2019-04-10T15:27:46.899Z,7.03
2019-04-10T15:30:15.055Z,7.33
2019-04-10T15:32:42.173Z,7.50
2019-04-10T15:35:10.431Z,6.93
2019-04-10T15:37:37.749Z,7.00
2019-04-10T15:40:17.709Z,6.80
2019-04-10T15:42:34.687Z,7.10
2019-04-10T15:45:03.099Z,7.03
2019-04-10T15:47:31.286Z,6.53
2019-04-10T15:49:59.803Z,7.17
2019-04-10T15:52:29.137Z,6.50
2019-04-10T15:54:57.401Z,7.63
2019-04-10T15:57:24.995Z,6.83
2019-04-10T15:59:52.545Z,6.40
2019-04-10T16:02:21.620Z,7.00
2019-04-10T16:04:48.976Z,6.43
2019-04-10T16:07:16.507Z,6.13
2019-04-10T16:09:49.949Z,6.50
2019-04-10T16:12:17.121Z,6.23
2019-04-10T16:14:44.486Z,7.47
2019-04-10T16:17:34.705Z,6.47
2019-04-10T16:20:21.748Z,6.67
2019-04-10T16:23:08.069Z,7.30
2019-04-10T16:25:36.202Z,7.30
2019-04-10T16:28:04.380Z,7.23
2019-04-10T16:30:32.858Z,6.60
2019-04-10T16:33:00.805Z,6.60
2019-04-10T16:35:29.488Z,6.50
2019-04-10T16:37:58.034Z,6.47
2019-04-10T16:40:26.866Z,7.13
2019-04-10T16:42:55.094Z,7.33
2019-04-10T16:45:22.666Z,6.50
2019-04-10T16:47:50.376Z,6.20
2019-04-10T16:50:17.580Z,6.20
2019-04-10T16:52:45.308Z,6.60
2019-04-10T16:55:12.633Z,6.80
2019-04-10T16:57:40.050Z,5.83
2019-04-10T17:00:07.946Z,6.43
2019-04-10T17:02:35.953Z,7.10
2019-04-10T17:05:05.978Z,7.00
2019-04-10T17:07:33.483Z,6.80
2019-04-10T17:10:12.817Z,6.80
2019-04-10T17:12:31.075Z,6.50
2019-04-10T17:14:58.256Z,6.13
2019-04-10T17:17:26.339Z,7.37
2019-04-10T17:19:56.415Z,6.53
2019-04-10T17:22:30.880Z,7.00
2019-04-10T17:24:51.600Z,7.37
2019-04-10T17:27:19.453Z,6.43
2019-04-10T17:29:47.320Z,6.13
2019-04-10T17:32:15.215Z,6.70
2019-04-10T17:34:43.091Z,6.90
2019-04-10T17:37:10.085Z,6.50
2019-04-10T17:39:37.667Z,6.63
2019-04-10T17:42:06.166Z,6.20
2019-04-10T17:44:33.838Z,6.83
2019-04-10T17:47:01.825Z,6.37
2019-04-10T17:49:29.871Z,6.70
2019-04-10T17:51:56.987Z,6.63
2019-04-10T17:54:24.953Z,6.37
2019-04-10T17:56:52.747Z,5.83
2019-04-10T17:59:20.444Z,6.43
2019-04-10T18:01:47.476Z,5.53
2019-04-10T18:04:15.948Z,6.40
2019-04-10T18:06:44.523Z,6.30
2019-04-10T18:09:11.847Z,6.20
2019-04-10T18:11:39.478Z,6.63
2019-04-10T18:14:07.000Z,6.00
2019-04-10T18:16:34.127Z,6.07
2019-04-10T18:19:02.124Z,5.70
2019-04-10T18:21:29.160Z,5.73
2019-04-10T18:23:56.397Z,6.47
2019-04-10T18:26:23.660Z,5.00
2019-04-10T18:28:51.887Z,5.60
2019-04-10T18:31:18.896Z,5.70
2019-04-10T18:33:46.853Z,6.10
2019-04-10T18:36:13.837Z,5.50
2019-04-10T18:38:41.706Z,6.07
2019-04-10T18:41:09.231Z,5.50
2019-04-10T18:43:36.651Z,5.27
2019-04-10T18:46:10.780Z,5.67
2019-04-10T18:48:32.523Z,4.70
2019-04-10T18:51:01.483Z,5.10
2019-04-10T18:53:28.955Z,5.77
2019-04-10T18:55:56.597Z,5.03
2019-04-10T18:58:27.575Z,5.07
2019-04-10T19:01:14.730Z,5.60
2019-04-10T19:04:05.828Z,5.33
2019-04-10T19:06:51.529Z,5.40
2019-04-10T19:09:24.618Z,5.50
2019-04-10T19:11:48.580Z,5.50
2019-04-10T19:14:16.291Z,5.23
2019-04-10T19:16:43.605Z,5.33
2019-04-10T19:19:12.396Z,5.40
2019-04-10T19:21:39.877Z,5.27
2019-04-10T19:24:08.137Z,5.07
2019-04-10T19:26:35.570Z,5.03
2019-04-10T19:29:03.330Z,5.33
2019-04-10T19:31:34.726Z,4.90
2019-04-10T19:34:01.084Z,5.20
2019-04-10T19:36:28.119Z,4.90
2019-04-10T19:38:55.887Z,5.13
2019-04-10T19:41:29.614Z,4.97
2019-04-10T19:43:52.668Z,4.67
2019-04-10T19:46:20.159Z,5.33
2019-04-10T19:48:50.093Z,5.00
2019-04-10T19:51:16.401Z,5.10
2019-04-10T19:53:43.698Z,5.03
2019-04-10T19:56:12.662Z,5.00
2019-04-10T19:58:39.864Z,5.07
2019-04-10T20:01:06.989Z,5.37
2019-04-10T20:03:35.402Z,4.77
2019-04-10T20:06:03.722Z,4.47
2019-04-10T20:08:31.340Z,5.13
2019-04-10T20:10:58.537Z,4.70
2019-04-10T20:13:25.430Z,4.10
2019-04-10T20:15:53.037Z,4.27
2019-04-10T20:18:21.020Z,4.13
2019-04-10T20:20:48.478Z,3.97
2019-04-10T20:23:15.979Z,4.70
2019-04-10T20:25:42.977Z,4.50
2019-04-10T20:28:09.951Z,4.47
2019-04-10T20:30:37.132Z,4.20
2019-04-10T20:33:04.210Z,4.63
2019-04-10T20:35:32.003Z,4.50
2019-04-10T20:37:59.129Z,3.87
2019-04-10T20:40:26.064Z,4.63
2019-04-10T20:42:54.157Z,4.47
2019-04-10T20:45:21.652Z,4.33
2019-04-10T20:47:49.725Z,4.53
2019-04-10T20:50:17.547Z,4.23
2019-04-10T20:52:45.285Z,4.73
2019-04-10T20:55:13.208Z,4.07
2019-04-10T20:57:40.501Z,4.60
2019-04-10T21:00:09.870Z,4.30
2019-04-10T21:02:38.310Z,4.33
2019-04-10T21:05:08.010Z,4.43
2019-04-10T21:07:35.328Z,4.40
2019-04-10T21:10:04.294Z,4.30
2019-04-10T21:12:32.469Z,4.37
2019-04-10T21:14:59.705Z,4.10
2019-04-10T21:17:27.577Z,4.27
2019-04-10T21:19:55.864Z,3.80
2019-04-10T21:22:22.941Z,3.90
2019-04-10T21:24:49.950Z,4.60
2019-04-10T21:27:16.908Z,4.13
2019-04-10T21:29:48.471Z,4.17
2019-04-10T21:32:34.899Z,3.93
2019-04-10T21:35:02.157Z,3.80
2019-04-10T21:37:29.089Z,4.00
2019-04-10T21:39:56.266Z,4.03
2019-04-10T21:42:25.308Z,4.17
2019-04-10T21:44:53.362Z,4.00
2019-04-10T21:47:21.523Z,4.10
2019-04-10T21:49:48.654Z,4.33
2019-04-10T21:52:16.888Z,4.00
2019-04-10T21:54:49.711Z,3.90
2019-04-10T21:57:12.549Z,3.97
2019-04-10T21:59:40.884Z,3.93
2019-04-10T22:02:08.039Z,3.70
2019-04-10T22:04:35.064Z,3.70
2019-04-10T22:07:27.984Z,4.10
2019-04-10T22:10:07.729Z,3.57
2019-04-10T22:12:40.536Z,4.47
2019-04-10T22:15:12.748Z,4.60
2019-04-10T22:17:40.467Z,4.30
2019-04-10T22:20:07.793Z,4.33
2019-04-10T22:22:35.092Z,4.60
2019-04-10T22:25:03.329Z,4.47
2019-04-10T22:27:31.630Z,4.10
2019-04-10T22:29:58.929Z,4.27
2019-04-10T22:32:26.854Z,4.03
2019-04-10T22:34:54.930Z,4.90
2019-04-10T22:37:22.007Z,4.50
2019-04-10T22:39:50.496Z,4.97
2019-04-10T22:42:17.531Z,4.53
2019-04-10T22:44:46.427Z,4.60
2019-04-10T22:47:14.681Z,4.60
2019-04-10T22:49:42.764Z,4.60
2019-04-10T22:52:10.940Z,4.67
2019-04-10T22:54:38.842Z,4.50
2019-04-10T22:57:06.882Z,4.07
2019-04-10T22:59:34.872Z,4.10
2019-04-10T23:02:10.840Z,4.50
2019-04-10T23:04:31.226Z,4.47
2019-04-10T23:06:58.361Z,4.03
2019-04-10T23:09:26.362Z,4.53
2019-04-10T23:11:53.997Z,4.27
2019-04-10T23:14:21.048Z,4.40
2019-04-10T23:16:48.396Z,4.00
2019-04-10T23:19:16.066Z,4.23
2019-04-10T23:21:43.158Z,4.03
2019-04-10T23:24:10.075Z,3.73
2019-04-10T23:26:37.503Z,4.07
2019-04-10T23:29:04.564Z,3.90
2019-04-10T23:31:31.976Z,3.70
2019-04-10T23:33:58.974Z,4.00
2019-04-10T23:36:26.494Z,4.23
2019-04-10T23:38:53.602Z,4.30
2019-04-10T23:41:21.201Z,4.50
2019-04-10T23:43:48.370Z,4.43
2019-04-10T23:46:15.434Z,4.33
2019-04-10T23:48:42.341Z,4.17
2019-04-10T23:51:09.253Z,4.60
2019-04-10T23:53:36.353Z,4.07
2019-04-10T23:56:04.255Z,4.30
2019-04-10T23:58:31.804Z,3.93
